Terminal Aerodrome Forecast
Issued by NWS Melbourne, FL

Home | Current Version | Previous Version | Text Only | Print | Product List | Glossary On
Versions: 1 2 3 4 5 6 7 8 9 10 11 12 13 14 15 16 17
000
FTUS42 KMLB 181700
TAFMLB
TAF
KMLB 181737Z 1818/1918 14014KT P6SM VCSH BKN011 BKN030
     FM181900 14011G20KT P6SM SHRA VCTS SCT020 BKN040CB OVC060
      TEMPO 1821/1823 4SM TSRA SCT020 BKN030CB
     FM190500 16008KT P6SM VCSH BKN030 OVC050
     FM191400 22014KT P6SM VCSH SCT015 OVC040=

USA.gov is the U.S. government's official web portal to all federal, state and local government web resources and services.